Time;durP1;ratioP1;P1;durP2;ratioP2;P2;SDS_P1;SDS_P2;PMS_P1;PMS_P2;Temp;Humidity;BMP_temperature;BMP_pressure;BME280_temperature;BME280_humidity;BME280_pressure;Samples;Min_cycle;Max_cycle;Signal;HPM_P1;HPM_P2
2022/06/25 00:01:11;;;;;;;13.32;6.65;;;;;;;17.61;62.94;99246.66;5032884;28;20531;-63
2022/06/25 00:03:38;;;;;;;13.10;7.40;;;;;;;17.58;63.17;99249.91;5032868;28;20076;-63
2022/06/25 00:06:04;;;;;;;8.40;6.63;;;;;;;17.56;62.95;99252.91;5033828;28;20047;-64
2022/06/25 00:08:31;;;;;;;8.82;7.32;;;;;;;17.58;63.32;99247.25;5032728;28;20112;-64
2022/06/25 00:10:56;;;;;;;14.93;7.95;;;;;;;17.53;63.43;99247.28;5034258;28;20040;-64
2022/06/25 00:13:22;;;;;;;11.82;7.28;;;;;;;17.50;63.68;99254.03;5016090;28;20057;-63
2022/06/25 00:15:48;;;;;;;11.95;7.88;;;;;;;17.46;64.00;99255.69;5033923;28;20041;-65
2022/06/25 00:18:14;;;;;;;13.50;7.53;;;;;;;17.44;63.99;99255.97;5034232;28;20442;-63
2022/06/25 00:20:41;;;;;;;11.27;7.78;;;;;;;17.44;64.03;99257.84;5032614;28;20041;-64
2022/06/25 00:23:07;;;;;;;10.68;7.25;;;;;;;17.42;64.05;99266.19;5032437;28;20041;-64
2022/06/25 00:25:33;;;;;;;12.43;7.65;;;;;;;17.39;64.01;99266.75;5033629;28;20060;-64
2022/06/25 00:27:59;;;;;;;11.70;7.15;;;;;;;17.36;64.37;99272.69;5034147;28;20045;-64
2022/06/25 00:30:24;;;;;;;12.25;7.28;;;;;;;17.36;64.25;99285.28;5033652;28;20175;-64
2022/06/25 00:32:50;;;;;;;10.82;7.45;;;;;;;17.35;64.39;99284.47;5016215;28;20183;-64
2022/06/25 00:35:17;;;;;;;9.10;6.90;;;;;;;17.33;64.59;99288.53;5032614;28;20111;-64
2022/06/25 00:37:42;;;;;;;11.68;7.78;;;;;;;17.30;64.50;99292.56;5033474;28;20507;-64
2022/06/25 00:40:10;;;;;;;11.80;8.55;;;;;;;17.23;65.20;99292.88;5032256;28;20049;-64
2022/06/25 00:42:36;;;;;;;10.20;8.85;;;;;;;17.20;65.14;99298.00;5016058;28;20040;-65
2022/06/25 00:45:03;;;;;;;12.20;9.38;;;;;;;17.19;65.34;99299.09;5015601;28;20099;-67
2022/06/25 00:47:29;;;;;;;15.35;9.15;;;;;;;17.19;65.36;99289.19;5033583;28;20087;-63
2022/06/25 00:49:55;;;;;;;12.20;8.70;;;;;;;17.24;65.09;99289.16;5032072;28;20101;-64
2022/06/25 00:52:22;;;;;;;9.43;8.00;;;;;;;17.33;64.78;99300.03;5033595;28;20052;-64
2022/06/25 00:54:56;;;;;;;8.45;7.55;;;;;;;17.42;64.24;99297.53;4999142;28;20424;-63
2022/06/25 00:57:24;;;;;;;13.48;8.30;;;;;;;17.53;64.10;99306.25;5032049;28;20041;-63
2022/06/25 00:59:50;;;;;;;10.40;7.78;;;;;;;17.60;63.76;99298.69;5033326;28;20049;-64
2022/06/25 01:02:17;;;;;;;8.85;7.28;;;;;;;17.71;63.19;99310.88;5031825;28;20128;-64
2022/06/25 01:04:43;;;;;;;10.40;7.30;;;;;;;17.84;63.01;99304.84;5031527;28;20050;-65
2022/06/25 01:07:09;;;;;;;11.90;7.40;;;;;;;17.95;62.54;99310.88;5033257;28;20044;-63
2022/06/25 01:09:37;;;;;;;11.90;7.40;;;;;;;18.06;62.08;99307.00;5032770;28;20132;-63
2022/06/25 01:12:03;;;;;;;10.07;7.38;;;;;;;18.20;61.63;99306.25;5032903;28;20057;-63
2022/06/25 01:14:29;;;;;;;8.35;6.38;;;;;;;18.37;60.92;99317.28;5033088;28;20045;-63
2022/06/25 01:16:55;;;;;;;7.95;6.03;;;;;;;18.54;60.38;99314.09;5014739;28;20041;-64
2022/06/25 01:19:21;;;;;;;11.68;7.15;;;;;;;18.75;60.06;99323.47;5031296;28;20045;-64
2022/06/25 01:21:46;;;;;;;7.72;6.53;;;;;;;18.94;59.23;99317.25;5032780;28;20045;-64
2022/06/25 01:24:12;;;;;;;7.85;6.43;;;;;;;19.14;58.42;99319.59;5031418;28;20137;-64
2022/06/25 01:26:39;;;;;;;10.18;6.85;;;;;;;19.35;57.63;99321.91;5031308;28;20495;-63
2022/06/25 01:29:06;;;;;;;8.50;6.50;;;;;;;19.60;57.18;99320.66;5014842;28;20049;-63
2022/06/25 01:31:32;;;;;;;8.75;6.68;;;;;;;19.84;56.11;99325.84;4998346;28;20128;-64
2022/06/25 01:33:59;;;;;;;9.48;5.97;;;;;;;20.04;55.49;99328.13;5031496;28;20051;-64
2022/06/25 01:36:25;;;;;;;10.55;6.38;;;;;;;20.23;55.18;99329.88;5031376;28;20063;-64
2022/06/25 01:38:50;;;;;;;8.95;6.47;;;;;;;20.48;54.19;99329.31;5030985;28;20048;-64
2022/06/25 01:41:17;;;;;;;8.05;6.15;;;;;;;20.73;53.30;99335.22;5032513;28;20045;-63
2022/06/25 01:43:44;;;;;;;10.55;6.25;;;;;;;20.94;52.89;99332.84;5031013;28;20045;-63
2022/06/25 01:46:10;;;;;;;9.73;6.57;;;;;;;21.20;52.04;99336.47;5031099;28;20049;-63
2022/06/25 01:48:38;;;;;;;8.07;6.20;;;;;;;21.41;51.55;99344.84;5030754;28;20049;-63
2022/06/25 01:51:04;;;;;;;7.50;6.05;;;;;;;21.69;50.87;99341.97;5030736;28;20033;-64
2022/06/25 01:53:30;;;;;;;8.48;5.90;;;;;;;21.88;50.02;99337.09;5014280;28;20048;-64
2022/06/25 01:55:56;;;;;;;7.47;5.63;;;;;;;22.21;49.54;99344.84;5014345;28;20045;-65
2022/06/25 01:58:23;;;;;;;8.63;6.10;;;;;;;22.32;48.90;99329.91;5030887;28;20127;-65
2022/06/25 02:00:49;;;;;;;9.82;6.10;;;;;;;22.61;48.35;99337.38;5030780;28;20054;-64
2022/06/25 02:03:15;;;;;;;9.00;6.45;;;;;;;22.83;47.73;99338.34;5030889;28;20041;-63
2022/06/25 02:05:59;;;;;;;6.45;5.38;;;;;;;22.99;46.96;99339.44;5014154;28;20519;-65
2022/06/25 02:08:29;;;;;;;8.77;6.32;;;;;;;23.08;46.56;99340.22;5016814;28;20388;-63
2022/06/25 02:10:55;;;;;;;;;;;;;;;23.16;46.63;99340.53;5032752;28;20049;-63
2022/06/25 02:13:22;;;;;;;7.63;5.63;;;;;;;23.57;45.83;99338.00;5031640;28;19921;-63
2022/06/25 02:15:47;;;;;;;7.10;6.13;;;;;;;23.55;45.88;99345.63;5031685;28;20507;-64
2022/06/25 02:18:13;;;;;;;8.82;5.53;;;;;;;23.56;45.80;99344.53;5030627;28;20119;-64
2022/06/25 02:20:40;;;;;;;8.10;5.63;;;;;;;23.55;45.76;99344.84;5030438;28;20103;-65
2022/06/25 02:23:07;;;;;;;7.10;5.70;;;;;;;23.81;45.20;99350.19;5030521;28;20560;-64
2022/06/25 02:25:33;;;;;;;7.05;5.88;;;;;;;23.97;44.89;99347.69;5030265;28;20526;-65
2022/06/25 02:27:59;;;;;;;8.75;5.88;;;;;;;24.33;43.87;99346.38;5030204;28;20124;-65
2022/06/25 02:30:24;;;;;;;6.53;5.60;;;;;;;24.59;43.27;99346.16;5029714;28;20515;-64
2022/06/25 02:32:50;;;;;;;6.63;5.75;;;;;;;24.60;43.48;99351.28;5030147;28;20533;-64
2022/06/25 02:35:16;;;;;;;7.18;5.30;;;;;;;24.64;42.83;99348.69;5030207;28;20077;-64
2022/06/25 02:37:42;;;;;;;9.32;5.70;;;;;;;25.18;42.04;99348.69;5013908;28;20045;-64
2022/06/25 02:40:12;;;;;;;9.23;5.82;;;;;;;25.52;41.77;99354.84;5046740;28;20061;-64
2022/06/25 02:42:41;;;;;;;7.25;5.65;;;;;;;25.58;41.01;99359.69;5030054;28;20131;-64
2022/06/25 02:45:08;;;;;;;7.65;6.72;;;;;;;25.61;41.16;99356.31;5030275;28;20077;-63
2022/06/25 02:47:36;;;;;;;6.90;5.93;;;;;;;25.76;40.94;99351.34;5030248;28;20415;-64
2022/06/25 02:50:07;;;;;;;7.40;5.93;;;;;;;25.96;40.56;99353.19;5014473;28;20046;-65
2022/06/25 02:52:34;;;;;;;9.35;6.00;;;;;;;26.19;39.97;99353.50;4997429;28;20087;-64
2022/06/25 02:55:00;;;;;;;7.18;6.47;;;;;;;25.66;41.16;99354.53;5013325;28;20470;-65
2022/06/25 03:00:21;;;;;;;6.97;5.35;;;;;;;25.91;41.08;99366.97;5016013;28;20049;-64
2022/06/25 03:02:49;;;;;;;9.75;5.97;;;;;;;26.21;40.63;99370.25;5013493;28;20045;-64
2022/06/25 03:05:14;;;;;;;6.97;5.75;;;;;;;25.94;41.06;99368.22;5013043;28;20053;-64
2022/06/25 03:07:40;;;;;;;8.48;5.68;;;;;;;25.91;41.09;99369.69;5013393;28;20056;-64
2022/06/25 03:10:08;;;;;;;7.50;5.32;;;;;;;26.13;40.80;99371.16;5029694;28;20037;-64
2022/06/25 03:12:35;;;;;;;8.63;5.82;;;;;;;26.45;40.50;99374.84;5029693;28;20140;-64
2022/06/25 03:15:15;;;;;;;8.65;5.60;;;;;;;26.20;40.75;99379.50;5013386;28;20092;-63
2022/06/25 03:17:42;;;;;;;7.68;5.90;;;;;;;26.49;40.50;99378.47;5029640;28;20057;-64
2022/06/25 03:20:26;;;;;;;14.65;7.95;;;;;;;26.56;40.59;99377.91;5031210;28;20095;-64
2022/06/25 03:22:56;;;;;;;7.18;5.13;;;;;;;26.58;39.89;99375.63;5029896;28;20120;-64
2022/06/25 03:25:23;;;;;;;6.68;5.70;;;;;;;26.58;40.32;99375.63;4996613;28;20107;-63
2022/06/25 03:27:49;;;;;;;7.93;5.43;;;;;;;26.56;40.90;99377.91;4997021;28;20044;-63
2022/06/25 03:30:16;;;;;;;8.68;5.57;;;;;;;26.93;39.84;99386.69;5013223;28;20096;-64
2022/06/25 03:32:43;;;;;;;7.63;5.90;;;;;;;27.21;39.57;99376.97;5029679;28;20038;-63
2022/06/25 03:35:25;;;;;;;7.75;6.07;;;;;;;27.64;38.79;99381.56;5029435;28;20050;-63
2022/06/25 03:38:20;;;;;;;9.55;5.20;;;;;;;27.97;38.54;99386.69;5030249;28;20491;-64
2022/06/25 03:40:46;;;;;;;9.32;5.75;;;;;;;28.13;38.07;99389.38;4998274;28;20404;-62
2022/06/25 03:43:15;;;;;;;7.63;5.10;;;;;;;27.95;38.59;99388.97;5033353;28;20095;-64
2022/06/25 03:45:43;;;;;;;8.80;5.40;;;;;;;28.01;38.92;99386.75;5017140;28;20119;-64
2022/06/25 03:48:10;;;;;;;7.50;5.22;;;;;;;28.07;37.96;99390.78;5033195;28;20518;-63
2022/06/25 03:50:54;;;;;;;6.13;5.32;;;;;;;28.15;38.82;99394.44;5034408;28;20056;-63
2022/06/25 03:53:21;;;;;;;13.65;5.45;;;;;;;28.28;37.93;99387.75;5016992;28;20075;-64
2022/06/25 03:55:47;;;;;;;7.78;5.22;;;;;;;28.43;37.75;99388.88;5034464;28;20041;-64
2022/06/25 03:58:13;;;;;;;7.13;5.55;;;;;;;28.67;38.29;99391.31;5034635;28;20046;-63
2022/06/25 04:00:39;;;;;;;8.90;5.13;;;;;;;28.88;37.87;99390.97;5016397;28;20466;-63
2022/06/25 04:03:05;;;;;;;8.18;5.57;;;;;;;28.61;38.60;99397.44;5033102;28;20045;-63
2022/06/25 04:05:51;;;;;;;11.85;5.35;;;;;;;28.74;37.63;99404.34;5033842;28;20056;-63
2022/06/25 04:08:33;;;;;;;13.23;4.80;;;;;;;28.88;37.10;99398.34;5032871;28;20060;-63
2022/06/25 04:11:01;;;;;;;6.53;5.32;;;;;;;28.81;37.34;99396.28;5032658;28;20081;-66
2022/06/25 04:13:28;;;;;;;8.30;5.00;;;;;;;28.64;38.75;99404.88;5016404;28;20462;-64
2022/06/25 04:15:55;;;;;;;6.78;4.93;;;;;;;28.40;38.48;99406.69;5016665;28;20095;-65
2022/06/25 04:18:20;;;;;;;6.13;5.28;;;;;;;28.12;37.83;99403.34;5032765;28;20041;-64
2022/06/25 04:20:46;;;;;;;6.15;5.55;;;;;;;28.12;38.27;99408.78;5016183;28;20046;-64
2022/06/25 04:23:13;;;;;;;7.53;5.22;;;;;;;28.30;37.99;99408.06;5016390;28;20053;-63
2022/06/25 04:25:40;;;;;;;5.85;5.25;;;;;;;28.43;38.09;99408.75;5032477;28;20050;-63
2022/06/25 04:30:53;;;;;;;9.15;5.15;;;;;;;28.21;37.70;99414.84;5032507;28;20061;-63
2022/06/25 04:33:20;;;;;;;7.25;5.15;;;;;;;28.09;38.76;99407.59;5032480;28;20045;-64
2022/06/25 04:35:56;;;;;;;6.13;4.82;;;;;;;27.98;38.30;99414.72;5032355;28;20045;-64
2022/06/25 04:38:43;;;;;;;7.63;4.75;;;;;;;27.60;37.31;99421.53;5035450;28;20049;-63
2022/06/25 04:41:10;;;;;;;7.22;5.30;;;;;;;27.47;38.92;99423.53;5015805;28;20045;-63
2022/06/25 04:43:36;;;;;;;8.32;5.35;;;;;;;27.31;38.97;99420.00;5032368;28;20049;-64
2022/06/25 04:46:07;;;;;;;4.82;4.30;;;;;;;27.64;39.26;99423.19;4999808;28;20087;-64
2022/06/25 04:48:39;;;;;;;5.18;4.60;;;;;;;27.93;38.43;99415.75;5032278;28;20064;-64
2022/06/25 04:51:36;;;;;;;10.40;5.20;;;;;;;28.22;36.60;99427.31;5042466;28;20510;-64
2022/06/25 04:54:03;;;;;;;5.10;4.13;;;;;;;28.01;36.66;99428.41;5031464;28;20045;-64
2022/06/25 04:56:37;;;;;;;6.20;4.30;;;;;;;27.67;37.25;99426.34;5032105;28;20495;-62
2022/06/25 04:59:04;;;;;;;5.38;4.07;;;;;;;27.55;36.43;99435.41;5031792;28;20525;-64
2022/06/25 05:01:55;;;;;;;6.07;3.85;;;;;;;27.47;37.22;99434.41;5019570;28;20411;-63
2022/06/25 05:04:34;;;;;;;7.50;4.50;;;;;;;27.63;36.82;99431.72;5031682;28;20055;-63
2022/06/25 05:07:00;;;;;;;5.60;4.13;;;;;;;27.69;36.56;99433.03;5031627;28;20056;-64
2022/06/25 05:09:27;;;;;;;7.57;4.05;;;;;;;27.68;37.04;99438.81;5032888;28;20053;-64
2022/06/25 05:11:53;;;;;;;5.25;3.85;;;;;;;28.10;34.91;99439.13;5014879;28;20041;-65
2022/06/25 05:14:19;;;;;;;5.03;4.30;;;;;;;27.69;37.04;99441.22;5031754;28;20059;-63
2022/06/25 05:16:46;;;;;;;6.32;4.35;;;;;;;27.27;36.86;99449.84;5031482;28;20076;-64
2022/06/25 05:19:12;;;;;;;5.97;4.10;;;;;;;27.00;37.07;99447.88;5014882;28;20459;-64
2022/06/25 05:21:38;;;;;;;5.68;4.07;;;;;;;26.78;38.06;99451.94;5031322;28;20049;-63
2022/06/25 05:24:05;;;;;;;7.45;4.68;;;;;;;26.55;38.91;99446.97;5031595;28;20048;-64
2022/06/25 05:26:31;;;;;;;6.18;4.65;;;;;;;26.35;39.83;99450.59;5031372;28;20515;-64
2022/06/25 05:28:57;;;;;;;10.07;4.80;;;;;;;26.45;39.53;99453.66;5031453;28;20049;-64
2022/06/25 05:31:24;;;;;;;5.75;4.10;;;;;;;26.33;40.11;99448.25;5031137;28;20552;-65
2022/06/25 05:33:52;;;;;;;8.65;4.90;;;;;;;26.26;39.80;99461.59;5032383;28;20136;-64
2022/06/25 05:36:18;;;;;;;5.30;4.60;;;;;;;26.19;40.20;99459.44;5032270;28;20497;-64
2022/06/25 05:38:44;;;;;;;5.40;4.65;;;;;;;26.22;40.26;99463.41;5031021;28;20605;-64
2022/06/25 05:41:10;;;;;;;8.55;4.70;;;;;;;25.99;41.39;99463.84;5030937;28;20043;-63
2022/06/25 05:43:38;;;;;;;9.10;5.10;;;;;;;25.93;41.44;99457.06;5032447;28;20038;-64
2022/06/25 05:46:05;;;;;;;6.10;4.55;;;;;;;25.88;41.53;99461.91;5032016;28;20049;-64
2022/06/25 05:48:31;;;;;;;5.65;4.60;;;;;;;25.81;41.59;99457.00;5032013;28;20053;-64
2022/06/25 05:50:57;;;;;;;7.82;4.80;;;;;;;25.76;42.04;99458.00;5014699;28;20041;-64
2022/06/25 05:53:24;;;;;;;6.93;4.85;;;;;;;25.73;41.87;99457.91;5032360;28;20522;-64
2022/06/25 05:55:49;;;;;;;6.45;4.60;;;;;;;25.72;41.91;99459.81;5032043;28;20072;-65
2022/06/25 05:58:15;;;;;;;5.95;4.63;;;;;;;25.73;42.04;99455.97;5014461;28;20053;-64
2022/06/25 06:00:41;;;;;;;5.60;4.55;;;;;;;25.71;40.76;99460.19;5030618;28;20053;-65
2022/06/25 06:03:06;;;;;;;7.28;4.90;;;;;;;25.64;40.87;99459.91;5032191;28;20059;-63
2022/06/25 06:05:32;;;;;;;7.25;5.07;;;;;;;25.57;41.69;99466.69;5031923;28;20049;-64
2022/06/25 06:07:58;;;;;;;6.20;4.90;;;;;;;25.59;41.35;99467.16;5032220;28;20065;-63
2022/06/25 06:10:24;;;;;;;6.20;5.00;;;;;;;25.56;41.12;99467.00;5031708;28;20041;-65
2022/06/25 06:12:49;;;;;;;5.65;4.95;;;;;;;25.51;41.64;99465.31;5031591;28;20416;-64
2022/06/25 06:15:15;;;;;;;8.40;5.22;;;;;;;25.63;41.74;99474.63;5031879;28;20081;-64
2022/06/25 06:17:41;;;;;;;8.40;4.93;;;;;;;25.58;41.64;99478.34;5030564;28;20064;-63
2022/06/25 06:20:07;;;;;;;7.55;5.32;;;;;;;25.46;41.58;99473.66;5031628;28;20463;-64
2022/06/25 06:22:33;;;;;;;8.35;5.30;;;;;;;25.51;42.22;99476.19;5031830;28;20099;-64
2022/06/25 06:24:58;;;;;;;9.50;5.70;;;;;;;25.58;41.14;99462.84;5030516;28;20050;-64
2022/06/25 06:27:24;;;;;;;5.82;5.18;;;;;;;25.67;42.17;99457.31;5031878;28;20045;-64
2022/06/25 06:29:50;;;;;;;6.35;4.60;;;;;;;25.62;41.83;99465.69;5030528;28;20495;-64
2022/06/25 06:32:16;;;;;;;5.93;5.05;;;;;;;25.57;41.61;99461.25;5030383;28;20041;-64
2022/06/25 06:34:42;;;;;;;7.78;4.90;;;;;;;25.43;41.20;99455.34;5031588;28;20483;-65
2022/06/25 06:37:07;;;;;;;8.85;5.43;;;;;;;25.35;41.40;99453.50;5031762;28;20522;-64
2022/06/25 06:39:33;;;;;;;7.47;5.18;;;;;;;25.34;42.24;99460.06;5030045;28;20042;-64
2022/06/25 06:41:59;;;;;;;6.63;4.97;;;;;;;25.40;42.34;99466.88;5030160;28;20059;-64
2022/06/25 06:44:25;;;;;;;7.47;5.05;;;;;;;25.46;41.67;99459.31;5030280;28;20047;-64
2022/06/25 06:46:51;;;;;;;8.95;5.13;;;;;;;25.49;41.50;99466.78;5031412;28;20045;-64
2022/06/25 06:49:16;;;;;;;7.57;4.90;;;;;;;25.42;41.72;99455.69;5031248;28;20041;-64
2022/06/25 06:51:42;;;;;;;5.25;4.60;;;;;;;25.41;41.80;99459.50;5031300;28;20438;-65
2022/06/25 06:54:08;;;;;;;5.20;4.60;;;;;;;25.55;41.21;99468.94;5029937;28;20103;-64
2022/06/25 06:56:34;;;;;;;4.95;4.07;;;;;;;25.55;41.21;99466.22;5031403;28;20424;-63
2022/06/25 06:59:00;;;;;;;9.55;5.22;;;;;;;25.58;41.86;99468.28;5029910;28;20507;-65
2022/06/25 07:01:26;;;;;;;5.43;4.68;;;;;;;25.74;41.53;99475.78;5013715;28;20086;-63
2022/06/25 07:03:51;;;;;;;6.63;4.70;;;;;;;25.92;40.54;99470.97;5031369;28;20423;-64
2022/06/25 07:06:17;;;;;;;5.78;4.70;;;;;;;25.93;41.31;99467.91;5030075;28;20037;-63
2022/06/25 07:08:43;;;;;;;7.03;4.43;;;;;;;25.91;41.43;99472.09;5030954;28;20184;-64
2022/06/25 07:13:54;;;;;;;6.22;5.03;;;;;;;26.04;40.95;99463.63;5031502;28;20061;-64
2022/06/25 07:16:21;;;;;;;6.65;5.13;;;;;;;26.15;40.64;99457.72;5031759;28;20416;-64
2022/06/25 07:18:46;;;;;;;7.03;4.97;;;;;;;26.46;40.13;99466.09;5035026;28;20041;-64
2022/06/25 07:21:12;;;;;;;7.55;4.70;;;;;;;26.61;39.15;99463.84;5035090;28;20045;-64
2022/06/25 07:23:38;;;;;;;6.80;4.43;;;;;;;26.65;38.58;99462.84;5033630;28;20419;-63
2022/06/25 07:26:04;;;;;;;7.30;4.47;;;;;;;26.79;38.82;99470.59;5033452;28;20527;-64
2022/06/25 07:28:30;;;;;;;5.15;4.00;;;;;;;26.70;39.18;99461.78;5033523;28;20045;-64
2022/06/25 07:30:55;;;;;;;6.50;4.50;;;;;;;26.79;39.13;99470.59;5034927;28;20037;-65
2022/06/25 07:33:21;;;;;;;10.40;4.55;;;;;;;26.84;38.88;99462.22;5000932;28;20041;-64
2022/06/25 07:35:47;;;;;;;5.80;4.45;;;;;;;26.80;38.66;99463.25;5034933;28;20564;-64
2022/06/25 07:38:12;;;;;;;5.30;4.38;;;;;;;26.83;38.73;99459.84;5017105;28;20530;-63
2022/06/25 07:40:38;;;;;;;7.10;4.20;;;;;;;26.79;38.31;99458.94;5034766;28;20049;-66
2022/06/25 07:43:04;;;;;;;5.30;4.55;;;;;;;26.75;39.38;99467.00;5033278;28;20033;-64
2022/06/25 07:45:29;;;;;;;4.50;4.10;;;;;;;26.67;38.55;99451.59;5034242;28;20041;-65
2022/06/25 07:47:55;;;;;;;4.40;4.00;;;;;;;26.76;38.80;99452.25;5033223;28;20046;-64
2022/06/25 07:53:05;;;;;;;6.25;4.00;;;;;;;26.90;38.10;99451.88;5034722;28;20090;-64
2022/06/25 07:55:31;;;;;;;5.05;4.20;;;;;;;26.79;38.50;99451.56;5034156;28;20053;-65
2022/06/25 07:57:56;;;;;;;5.80;4.30;;;;;;;26.62;38.98;99455.38;5034576;28;20037;-64
2022/06/25 08:00:22;;;;;;;7.82;4.63;;;;;;;26.50;40.15;99458.91;5034375;28;20045;-65
2022/06/25 08:02:48;;;;;;;4.60;4.20;;;;;;;26.47;39.89;99454.13;5034185;28;20037;-63
2022/06/25 08:05:14;;;;;;;4.90;4.25;;;;;;;26.50;40.22;99460.78;5033099;28;20068;-64
2022/06/25 08:07:40;;;;;;;4.95;4.45;;;;;;;26.57;39.70;99454.81;5034346;28;20033;-64
2022/06/25 08:10:06;;;;;;;5.65;4.13;;;;;;;26.71;39.88;99456.03;5033920;28;20057;-64
2022/06/25 08:12:32;;;;;;;7.32;4.35;;;;;;;26.71;39.69;99461.47;5033845;28;20561;-64
2022/06/25 08:14:59;;;;;;;5.03;4.50;;;;;;;26.52;39.41;99460.47;5032534;28;20057;-64
2022/06/25 08:17:25;;;;;;;6.15;4.38;;;;;;;26.38;39.51;99452.63;5033792;28;20125;-64
2022/06/25 08:19:51;;;;;;;5.80;4.50;;;;;;;26.24;39.69;99448.34;5032964;28;20053;-64
2022/06/25 08:22:16;;;;;;;6.47;4.05;;;;;;;26.28;39.67;99459.34;5016079;28;20144;-63
2022/06/25 08:24:42;;;;;;;7.55;4.28;;;;;;;25.98;40.39;99454.13;5032776;28;20080;-64
2022/06/25 08:27:08;;;;;;;4.75;3.85;;;;;;;25.80;40.69;99450.00;5032540;28;20087;-64
2022/06/25 08:29:34;;;;;;;6.43;4.00;;;;;;;25.75;40.51;99445.56;5032758;28;20054;-63
2022/06/25 08:32:00;;;;;;;4.88;4.15;;;;;;;25.74;40.83;99440.50;5032569;28;20041;-64
2022/06/25 08:34:26;;;;;;;6.53;3.97;;;;;;;25.83;40.53;99446.66;5033839;28;20489;-64
2022/06/25 08:36:51;;;;;;;4.32;3.90;;;;;;;25.93;40.79;99439.97;5033677;28;20140;-64
2022/06/25 08:39:17;;;;;;;6.28;5.40;;;;;;;25.94;40.14;99447.78;5032215;28;20053;-64
2022/06/25 08:41:44;;;;;;;5.22;4.05;;;;;;;26.05;40.65;99440.75;5032216;28;20091;-63
2022/06/25 08:44:09;;;;;;;5.03;4.10;;;;;;;26.27;40.05;99450.41;5032213;28;20042;-63
2022/06/25 08:46:36;;;;;;;6.80;4.45;;;;;;;26.32;39.82;99438.47;5033210;28;20048;-63
2022/06/25 08:49:02;;;;;;;6.55;4.55;;;;;;;26.31;39.87;99447.00;5032060;28;20571;-65
2022/06/25 08:51:28;;;;;;;4.47;3.95;;;;;;;26.32;39.82;99441.19;5033274;28;20046;-64
2022/06/25 08:53:55;;;;;;;4.45;4.05;;;;;;;26.36;38.92;99433.97;5031913;28;20482;-64
2022/06/25 08:56:22;;;;;;;4.05;3.72;;;;;;;26.41;39.53;99430.22;5031953;28;20068;-64
2022/06/25 08:58:47;;;;;;;4.95;4.22;;;;;;;26.39;39.35;99422.41;5015429;28;20045;-67
2022/06/25 09:01:13;;;;;;;5.68;4.43;;;;;;;26.56;39.28;99424.13;5033245;28;20137;-64
2022/06/25 09:03:39;;;;;;;7.18;3.85;;;;;;;26.62;38.96;99424.66;5033278;28;20056;-64
2022/06/25 09:06:18;;;;;;;5.20;4.00;;;;;;;26.60;38.96;99429.66;5015137;28;20446;-64
2022/06/25 09:08:45;;;;;;;5.15;3.95;;;;;;;26.47;39.47;99431.56;5015192;28;20042;-65
2022/06/25 09:11:11;;;;;;;5.22;3.75;;;;;;;26.39;39.37;99430.56;5031911;28;20554;-64
2022/06/25 09:13:37;;;;;;;4.53;4.00;;;;;;;26.26;39.35;99421.63;5032810;28;20532;-64
2022/06/25 09:16:03;;;;;;;5.55;3.70;;;;;;;26.32;38.89;99429.53;5015059;28;20033;-67
2022/06/25 09:18:32;;;;;;;5.57;4.10;;;;;;;26.35;38.89;99420.72;5032713;28;20088;-65
2022/06/25 09:21:07;;;;;;;5.45;4.15;;;;;;;26.39;38.98;99416.97;5033031;28;20087;-65
2022/06/25 09:23:58;;;;;;;4.20;3.83;;;;;;;26.33;38.71;99415.63;5032926;28;20128;-64
2022/06/25 09:26:24;;;;;;;4.85;4.00;;;;;;;26.35;39.10;99421.50;5031447;28;20049;-66
2022/06/25 09:28:50;;;;;;;4.45;3.47;;;;;;;26.51;38.53;99421.63;5032642;28;20049;-64
2022/06/25 09:31:34;;;;;;;4.35;3.95;;;;;;;26.63;38.78;99418.88;5032837;28;20040;-64
2022/06/25 09:34:08;;;;;;;5.80;3.55;;;;;;;26.64;38.71;99425.88;5032385;28;20049;-64
2022/06/25 09:36:35;;;;;;;4.55;3.83;;;;;;;26.64;38.44;99435.97;5014601;28;20037;-63
2022/06/25 09:39:01;;;;;;;6.03;3.70;;;;;;;26.57;38.50;99428.41;5032264;28;20049;-65
2022/06/25 09:41:48;;;;;;;4.53;3.53;;;;;;;26.58;39.50;99426.47;5030822;28;20111;-63
2022/06/25 09:44:15;;;;;;;4.10;3.58;;;;;;;26.40;38.84;99426.69;5030926;28;20107;-64
2022/06/25 09:46:55;;;;;;;5.43;3.95;;;;;;;26.24;38.23;99433.97;5030622;28;20041;-65
2022/06/25 09:49:25;;;;;;;4.63;3.70;;;;;;;26.21;38.52;99431.94;5032036;28;20037;-65
2022/06/25 09:52:00;;;;;;;;;;;;;;;26.24;38.24;99431.25;5032565;28;20041;-64
2022/06/25 09:54:26;;;;;;;6.20;3.58;;;;;;;26.28;38.53;99415.84;5032321;28;19925;-65
2022/06/25 09:56:53;;;;;;;5.13;3.85;;;;;;;26.56;38.07;99424.13;5030997;28;20041;-63
2022/06/25 09:59:19;;;;;;;4.40;3.40;;;;;;;26.63;37.65;99423.53;5031838;28;20041;-64
2022/06/25 10:01:44;;;;;;;4.63;3.50;;;;;;;26.79;37.39;99429.03;5030581;28;20053;-64
2022/06/25 10:04:10;;;;;;;4.93;3.75;;;;;;;26.91;37.79;99429.78;5030461;28;20045;-63
2022/06/25 10:06:39;;;;;;;4.00;3.70;;;;;;;27.14;37.21;99431.94;5030245;28;20647;-64
2022/06/25 10:09:06;;;;;;;4.50;3.53;;;;;;;27.08;37.05;99427.91;5032142;28;20049;-64
2022/06/25 10:11:34;;;;;;;4.70;3.50;;;;;;;27.04;37.51;99421.59;5032160;28;20073;-63
2022/06/25 10:14:00;;;;;;;7.22;4.00;;;;;;;26.76;38.34;99413.41;5030477;28;20541;-63
2022/06/25 10:16:27;;;;;;;4.88;3.90;;;;;;;26.91;37.54;99421.63;5031630;28;20086;-64
2022/06/25 10:18:53;;;;;;;6.47;4.18;;;;;;;26.93;37.84;99424.78;5031793;28;20186;-64
2022/06/25 10:21:22;;;;;;;4.40;3.78;;;;;;;26.68;37.95;99426.00;5031789;28;20049;-63
2022/06/25 10:24:00;;;;;;;3.75;3.40;;;;;;;26.76;37.01;99418.84;5031520;28;20049;-65
2022/06/25 10:26:26;;;;;;;4.35;3.95;;;;;;;26.78;37.68;99409.19;5013750;28;20136;-64
2022/06/25 10:28:52;;;;;;;4.53;3.80;;;;;;;26.88;37.60;99405.19;5030253;28;20136;-65
2022/06/25 10:31:19;;;;;;;4.85;3.80;;;;;;;27.09;37.64;99408.53;5030473;28;20048;-64
2022/06/25 10:33:53;;;;;;;5.35;3.67;;;;;;;27.22;36.60;99412.00;5030484;28;20070;-63
2022/06/25 10:36:42;;;;;;;4.72;3.20;;;;;;;27.05;37.95;99417.72;5030240;28;20045;-65
2022/06/25 10:39:22;;;;;;;8.95;4.60;;;;;;;26.99;36.93;99419.09;5031652;28;20047;-64
2022/06/25 10:45:04;;;;;;;4.63;3.60;;;;;;;27.01;36.98;99406.75;5031236;28;20479;-64
2022/06/25 10:47:51;;;;;;;5.43;3.97;;;;;;;26.95;37.54;99406.19;5030002;28;20133;-63
2022/06/25 10:50:22;;;;;;;5.50;3.88;;;;;;;26.97;37.43;99400.41;5030629;28;20049;-65
2022/06/25 10:53:15;;;;;;;4.25;3.85;;;;;;;26.99;37.17;99397.34;5031656;28;20551;-64
2022/06/25 10:55:46;;;;;;;5.88;3.75;;;;;;;27.00;37.05;99415.22;5030701;28;20053;-64
2022/06/25 10:58:15;;;;;;;3.80;3.50;;;;;;;26.92;36.91;99406.09;5031631;28;20119;-64
2022/06/25 11:00:48;;;;;;;4.90;3.50;;;;;;;26.86;37.09;99408.28;4997191;28;20045;-65
2022/06/25 11:03:15;;;;;;;4.00;3.60;;;;;;;26.93;36.72;99397.59;5031561;28;20498;-64
2022/06/25 11:05:41;;;;;;;4.18;3.60;;;;;;;26.99;36.91;99389.19;5031053;28;20529;-64
2022/06/25 11:08:08;;;;;;;4.25;3.45;;;;;;;26.98;37.03;99393.03;5031514;28;20041;-64
2022/06/25 11:10:38;;;;;;;4.78;3.83;;;;;;;26.94;36.96;99395.66;5029729;28;20066;-65
2022/06/25 11:13:04;;;;;;;4.43;3.58;;;;;;;26.93;36.98;99391.34;5030404;28;20053;-63
2022/06/25 11:15:41;;;;;;;4.20;3.80;;;;;;;26.72;37.69;99402.44;5029794;28;20060;-64
2022/06/25 11:18:11;;;;;;;3.97;3.53;;;;;;;26.45;37.95;99398.50;5031507;28;20068;-64
2022/06/25 11:20:41;;;;;;;5.43;4.22;;;;;;;26.47;37.73;99396.22;5031028;28;20045;-64
2022/06/25 11:23:11;;;;;;;4.50;3.75;;;;;;;26.58;37.70;99396.56;5031228;28;20551;-63
2022/06/25 11:28:48;;;;;;;6.95;3.67;;;;;;;26.78;38.20;99389.38;5016427;28;20042;-64
2022/06/25 11:31:24;;;;;;;3.88;3.50;;;;;;;26.90;37.63;99384.69;5031236;28;20041;-62
2022/06/25 11:33:51;;;;;;;7.97;3.83;;;;;;;27.05;37.26;99394.00;5031210;28;20411;-64
2022/06/25 11:36:19;;;;;;;4.78;3.88;;;;;;;27.15;36.92;99396.28;5030917;28;20423;-64
2022/06/25 11:38:52;;;;;;;6.95;3.60;;;;;;;27.16;36.96;99403.28;5029599;28;20050;-64
2022/06/25 11:41:22;;;;;;;4.57;3.60;;;;;;;27.14;36.89;99408.25;5030799;28;20034;-64
2022/06/25 11:43:47;;;;;;;6.18;3.75;;;;;;;27.12;36.98;99396.13;5030798;28;20522;-65
2022/06/25 11:46:18;;;;;;;3.90;3.50;;;;;;;27.06;37.04;99392.09;5030789;28;20046;-62
2022/06/25 11:48:47;;;;;;;4.65;3.60;;;;;;;27.02;37.26;99396.66;5029533;28;20061;-65
2022/06/25 11:51:14;;;;;;;4.93;3.60;;;;;;;26.95;36.79;99387.16;5029390;28;20048;-64
2022/06/25 11:53:41;;;;;;;4.80;3.88;;;;;;;26.90;36.86;99397.50;5029472;28;20045;-64